Time;durP1;ratioP1;P1;durP2;ratioP2;P2;SDS_P1;SDS_P2;PMS_P1;PMS_P2;Temp;Humidity;BMP_temperature;BMP_pressure;BME280_temperature;BME280_humidity;BME280_pressure;Samples;Min_cycle;Max_cycle;Signal;HPM_P1;HPM_P2
2023/09/30 00:02:05;;;;;;;;;;;16.30;98.00;;;;;;5081703;28;19918;-71
2023/09/30 00:04:30;;;;;;;;;;;16.30;98.00;;;;;;5073481;28;19916;-71
2023/09/30 00:06:56;;;;;;;;;;;16.30;98.00;;;;;;5089918;28;19954;-71
2023/09/30 00:09:21;;;;;;;;;;;16.20;98.00;;;;;;5090252;28;19915;-71
2023/09/30 00:11:47;;;;;;;;;;;16.20;98.00;;;;;;5097532;28;19996;-71
2023/09/30 00:14:13;;;;;;;;;;;16.20;98.00;;;;;;5089962;28;19909;-71
2023/09/30 00:16:38;;;;;;;;;;;16.20;98.00;;;;;;5089544;28;20226;-71
2023/09/30 00:19:04;;;;;;;;;;;16.20;98.00;;;;;;5093587;28;19977;-71
2023/09/30 00:21:29;;;;;;;;;;;16.20;98.00;;;;;;5073922;28;19917;-71
2023/09/30 00:23:55;;;;;;;;;;;16.10;98.00;;;;;;5089093;28;20486;-71
2023/09/30 00:26:21;;;;;;;;;;;16.10;98.00;;;;;;5083232;28;20368;-71
2023/09/30 00:28:47;;;;;;;;;;;16.10;98.00;;;;;;5112577;27;19918;-71
2023/09/30 00:31:12;;;;;;;;;;;16.10;98.00;;;;;;5089768;28;19912;-71
2023/09/30 00:33:38;;;;;;;;;;;16.10;98.00;;;;;;5089319;28;19908;-71
2023/09/30 00:36:08;;;;;;;;;;;16.10;98.00;;;;;;5098178;28;19915;-71
2023/09/30 00:38:33;;;;;;;;;;;16.10;98.00;;;;;;5087655;28;19955;-71
2023/09/30 00:40:59;;;;;;;;;;;16.10;98.00;;;;;;5081514;28;20368;-71
2023/09/30 00:43:24;;;;;;;;;;;16.00;98.00;;;;;;5089549;28;20019;-71
2023/09/30 00:46:01;;;;;;;;;;;16.10;98.00;;;;;;5088001;28;19949;-71
2023/09/30 00:48:27;;;;;;;;;;;16.00;98.00;;;;;;5089623;28;20543;-71
2023/09/30 00:50:52;;;;;;;;;;;16.00;98.00;;;;;;5081105;28;19927;-71
2023/09/30 00:53:18;;;;;;;;;;;16.00;98.00;;;;;;5089625;28;20361;-71
2023/09/30 00:55:44;;;;;;;;;;;16.00;98.00;;;;;;5080853;28;19915;-71
2023/09/30 00:58:09;;;;;;;;;;;16.00;97.90;;;;;;5088275;28;19916;-71
2023/09/30 01:00:35;;;;;;;;;;;16.00;98.00;;;;;;5089208;28;19991;-71
2023/09/30 01:03:03;;;;;;;;;;;16.00;98.00;;;;;;5085077;28;19998;-71
2023/09/30 01:05:30;;;;;;;;;;;16.00;98.00;;;;;;5099968;28;20387;-71
2023/09/30 01:07:55;;;;;;;;;;;16.00;98.00;;;;;;5072767;28;19943;-71
2023/09/30 01:10:21;;;;;;;;;;;15.90;98.00;;;;;;5089669;28;19985;-71
2023/09/30 01:12:46;;;;;;;;;;;15.90;97.90;;;;;;5089269;28;19961;-71
2023/09/30 01:15:12;;;;;;;;;;;15.90;98.00;;;;;;5089319;28;19962;-71
2023/09/30 01:17:37;;;;;;;;;;;15.90;98.00;;;;;;5091321;28;20027;-71
2023/09/30 01:20:08;;;;;;;;;;;15.90;98.00;;;;;;5089029;28;19912;-71
2023/09/30 01:22:33;;;;;;;;;;;15.90;97.90;;;;;;5080430;28;19912;-71
2023/09/30 01:24:59;;;;;;;;;;;15.90;97.90;;;;;;5112287;27;20360;-71
2023/09/30 01:27:25;;;;;;;;;;;15.90;98.00;;;;;;5094599;28;19968;-71
2023/09/30 01:29:51;;;;;;;;;;;15.90;98.00;;;;;;5085034;28;19919;-71
2023/09/30 01:32:16;;;;;;;;;;;15.90;98.00;;;;;;5092885;28;19908;-71
2023/09/30 01:34:42;;;;;;;;;;;15.80;98.00;;;;;;5092615;28;19916;-71
2023/09/30 01:37:07;;;;;;;;;;;15.80;98.00;;;;;;5092773;28;20357;-71
2023/09/30 01:39:33;;;;;;;;;;;15.80;97.90;;;;;;5089977;28;19912;-71
2023/09/30 01:41:59;;;;;;;;;;;15.80;97.90;;;;;;5084241;28;19961;-71
2023/09/30 01:44:25;;;;;;;;;;;15.80;97.90;;;;;;5090895;28;19913;-71
2023/09/30 01:46:51;;;;;;;;;;;15.80;97.90;;;;;;5094500;28;20708;-71
2023/09/30 01:49:18;;;;;;;;;;;15.80;97.90;;;;;;5104499;28;19965;-71
2023/09/30 01:51:43;;;;;;;;;;;15.80;98.00;;;;;;5093171;28;19912;-71
2023/09/30 01:54:10;;;;;;;;;;;15.80;98.00;;;;;;5092613;28;19915;-71
2023/09/30 01:56:36;;;;;;;;;;;15.80;98.00;;;;;;5092241;28;19934;-71
2023/09/30 01:59:01;;;;;;;;;;;15.80;97.90;;;;;;5091200;28;19909;-71
2023/09/30 02:01:27;;;;;;;;;;;15.70;97.90;;;;;;5092395;28;19973;-71
2023/09/30 02:03:53;;;;;;;;;;;15.70;98.00;;;;;;5094282;28;20451;-71
2023/09/30 02:06:18;;;;;;;;;;;15.70;98.00;;;;;;5097729;28;19948;-71
2023/09/30 02:08:44;;;;;;;;;;;15.70;98.00;;;;;;5091936;28;19985;-71
2023/09/30 02:11:10;;;;;;;;;;;15.70;98.00;;;;;;5091128;28;19962;-71
2023/09/30 02:13:36;;;;;;;;;;;15.70;98.00;;;;;;5091920;28;19912;-71
2023/09/30 02:16:01;;;;;;;;;;;15.70;98.20;;;;;;5092663;28;19908;-71
2023/09/30 02:18:27;;;;;;;;;;;15.70;98.00;;;;;;5091981;28;19957;-71
2023/09/30 02:20:53;;;;;;;;;;;15.70;97.90;;;;;;5083553;28;19966;-71
2023/09/30 02:23:18;;;;;;;;;;;15.70;98.00;;;;;;5092303;28;19916;-71
2023/09/30 02:25:44;;;;;;;;;;;15.60;97.80;;;;;;5090212;28;20513;-71
2023/09/30 02:28:10;;;;;;;;;;;15.60;97.90;;;;;;5085379;28;19915;-71
2023/09/30 02:30:36;;;;;;;;;;;15.70;97.90;;;;;;5098746;28;19918;-71
2023/09/30 02:33:02;;;;;;;;;;;15.60;98.20;;;;;;5091932;28;19916;-71
2023/09/30 02:35:27;;;;;;;;;;;15.60;97.90;;;;;;5091433;28;19912;-71
2023/09/30 02:37:54;;;;;;;;;;;15.60;97.90;;;;;;5089805;28;19912;-71
2023/09/30 02:40:19;;;;;;;;;;;15.60;98.00;;;;;;5085013;28;19909;-71
2023/09/30 02:42:45;;;;;;;;;;;15.60;98.00;;;;;;5091397;28;19908;-71
2023/09/30 02:45:11;;;;;;;;;;;15.50;97.90;;;;;;5091705;28;19908;-71
2023/09/30 02:47:37;;;;;;;;;;;15.50;97.90;;;;;;5087485;28;19912;-71
2023/09/30 02:50:04;;;;;;;;;;;15.50;97.90;;;;;;5091987;28;19912;-71
2023/09/30 02:52:30;;;;;;;;;;;15.50;97.90;;;;;;5091476;28;20360;-71
2023/09/30 02:54:57;;;;;;;;;;;15.50;97.90;;;;;;5091237;28;19919;-71
2023/09/30 02:57:23;;;;;;;;;;;15.50;97.90;;;;;;5091285;28;19966;-71
2023/09/30 02:59:48;;;;;;;;;;;15.50;98.00;;;;;;5089487;28;19935;-71
2023/09/30 03:02:15;;;;;;;;;;;15.50;98.00;;;;;;5085118;28;20357;-71
2023/09/30 03:04:42;;;;;;;;;;;15.40;98.00;;;;;;5090862;28;19919;-71
2023/09/30 03:07:08;;;;;;;;;;;15.40;97.90;;;;;;5091148;28;19912;-71
2023/09/30 03:09:34;;;;;;;;;;;15.40;97.90;;;;;;5091240;28;19916;-71
2023/09/30 03:11:59;;;;;;;;;;;15.40;97.90;;;;;;5090873;28;19912;-71
2023/09/30 03:14:25;;;;;;;;;;;15.40;97.90;;;;;;5082564;28;19912;-71
2023/09/30 03:16:51;;;;;;;;;;;15.40;97.90;;;;;;5112737;27;20631;-71
2023/09/30 03:19:17;;;;;;;;;;;15.40;97.90;;;;;;5112026;27;19912;-71
2023/09/30 03:21:43;;;;;;;;;;;15.40;97.90;;;;;;5112748;27;19915;-71
2023/09/30 03:24:08;;;;;;;;;;;15.40;97.90;;;;;;5090794;28;19912;-71
2023/09/30 03:26:34;;;;;;;;;;;15.30;97.90;;;;;;5099804;28;19916;-71
2023/09/30 03:29:00;;;;;;;;;;;15.30;97.90;;;;;;5082070;28;19912;-71
2023/09/30 03:31:25;;;;;;;;;;;15.30;97.90;;;;;;5089229;28;19908;-71
2023/09/30 03:33:53;;;;;;;;;;;15.30;97.90;;;;;;5089969;28;20325;-71
2023/09/30 03:36:25;;;;;;;;;;;15.30;97.90;;;;;;5089260;28;20005;-71
2023/09/30 03:38:54;;;;;;;;;;;15.30;97.90;;;;;;5082056;28;19909;-71
2023/09/30 03:41:20;;;;;;;;;;;15.30;97.90;;;;;;5080830;28;19908;-71
2023/09/30 03:43:45;;;;;;;;;;;15.30;98.00;;;;;;5080162;28;20636;-71
2023/09/30 03:46:12;;;;;;;;;;;15.20;97.90;;;;;;5094780;28;19919;-71
2023/09/30 03:48:39;;;;;;;;;;;15.20;97.90;;;;;;5096460;28;19912;-71
2023/09/30 03:51:08;;;;;;;;;;;15.30;97.90;;;;;;5098560;28;19912;-71
2023/09/30 03:53:34;;;;;;;;;;;15.20;97.90;;;;;;5082383;28;19908;-71
2023/09/30 03:55:59;;;;;;;;;;;15.20;97.90;;;;;;5090019;28;19919;-71
2023/09/30 03:58:26;;;;;;;;;;;15.20;97.90;;;;;;5088923;28;19948;-71
2023/09/30 04:00:51;;;;;;;;;;;15.20;97.90;;;;;;5081952;28;20388;-71
2023/09/30 04:03:17;;;;;;;;;;;15.20;97.90;;;;;;5088880;28;19951;-71
2023/09/30 04:05:42;;;;;;;;;;;15.20;97.90;;;;;;5089954;28;19912;-71
2023/09/30 04:08:08;;;;;;;;;;;15.20;97.90;;;;;;5089046;28;19919;-71
2023/09/30 04:10:34;;;;;;;;;;;15.20;97.90;;;;;;5114492;27;20450;-71
2023/09/30 04:12:59;;;;;;;;;;;15.10;97.90;;;;;;5088338;28;19908;-71
2023/09/30 04:15:25;;;;;;;;;;;15.10;97.90;;;;;;5096338;28;19908;-71
2023/09/30 04:17:52;;;;;;;;;;;15.10;97.90;;;;;;5094084;28;19919;-71
2023/09/30 04:20:21;;;;;;;;;;;15.10;97.90;;;;;;5090059;28;19915;-71
2023/09/30 04:22:48;;;;;;;;;;;15.10;97.90;;;;;;5081309;28;19919;-71
2023/09/30 04:25:16;;;;;;;;;;;15.10;97.80;;;;;;5080209;28;20277;-71
2023/09/30 04:27:42;;;;;;;;;;;15.10;97.90;;;;;;5089541;28;20581;-71
2023/09/30 04:30:08;;;;;;;;;;;15.00;97.80;;;;;;5089760;28;19990;-71
2023/09/30 04:32:38;;;;;;;;;;;15.00;97.80;;;;;;5089433;28;19947;-71
2023/09/30 04:35:08;;;;;;;;;;;15.00;97.80;;;;;;5089654;28;19919;-71
2023/09/30 04:37:33;;;;;;;;;;;15.00;97.80;;;;;;5090051;28;19912;-71
2023/09/30 04:39:59;;;;;;;;;;;15.00;97.80;;;;;;5082961;28;19920;-71
2023/09/30 04:42:28;;;;;;;;;;;15.00;97.80;;;;;;5084377;28;19999;-71
2023/09/30 04:44:55;;;;;;;;;;;15.00;97.80;;;;;;5089284;28;19919;-71
2023/09/30 04:47:21;;;;;;;;;;;15.00;97.80;;;;;;5091634;28;19920;-71
2023/09/30 04:49:47;;;;;;;;;;;14.90;97.80;;;;;;5091080;28;19998;-71
2023/09/30 04:52:12;;;;;;;;;;;14.90;97.80;;;;;;5089164;28;20313;-71
2023/09/30 04:54:38;;;;;;;;;;;14.90;97.80;;;;;;5089104;28;19923;-71
2023/09/30 04:57:03;;;;;;;;;;;15.00;97.80;;;;;;5089668;28;19909;-71
2023/09/30 04:59:29;;;;;;;;;;;14.90;97.80;;;;;;5093479;28;19912;-71
2023/09/30 05:01:56;;;;;;;;;;;14.90;97.80;;;;;;5074073;28;20012;-71
2023/09/30 05:04:23;;;;;;;;;;;14.90;97.80;;;;;;5087434;28;19977;-71
2023/09/30 05:06:49;;;;;;;;;;;14.90;97.80;;;;;;5093390;28;19961;-71
2023/09/30 05:09:15;;;;;;;;;;;14.90;97.80;;;;;;5088332;28;19921;-71
2023/09/30 05:11:40;;;;;;;;;;;14.80;97.80;;;;;;5073250;28;20411;-71
2023/09/30 05:14:06;;;;;;;;;;;14.80;97.80;;;;;;5093009;28;20423;-71
2023/09/30 05:16:31;;;;;;;;;;;14.80;97.70;;;;;;5093243;28;19912;-71
2023/09/30 05:18:57;;;;;;;;;;;14.80;97.70;;;;;;5092871;28;20384;-71
2023/09/30 05:21:22;;;;;;;;;;;14.80;97.70;;;;;;5097260;28;19911;-71
2023/09/30 05:23:49;;;;;;;;;;;14.80;97.70;;;;;;5091522;28;19922;-71
2023/09/30 05:26:14;;;;;;;;;;;14.70;97.70;;;;;;5112557;27;19917;-71
2023/09/30 05:28:41;;;;;;;;;;;14.80;97.70;;;;;;5089213;28;19915;-71
2023/09/30 05:31:07;;;;;;;;;;;14.70;97.70;;;;;;5099791;28;20006;-71
2023/09/30 05:33:33;;;;;;;;;;;14.70;97.70;;;;;;5092062;28;19908;-71
2023/09/30 05:36:02;;;;;;;;;;;14.70;97.70;;;;;;5094354;28;20216;-71
2023/09/30 05:38:29;;;;;;;;;;;14.70;97.70;;;;;;5096716;28;19912;-71
2023/09/30 05:40:55;;;;;;;;;;;14.70;97.70;;;;;;5088355;28;20253;-71
2023/09/30 05:43:21;;;;;;;;;;;14.70;97.70;;;;;;5091672;28;19927;-71
2023/09/30 05:45:54;;;;;;;;;;;14.70;97.70;;;;;;5090078;28;19918;-71
2023/09/30 05:48:20;;;;;;;;;;;14.70;98.00;;;;;;5096060;28;20013;-71
2023/09/30 05:50:46;;;;;;;;;;;14.70;97.70;;;;;;5092284;28;19915;-71
2023/09/30 05:53:11;;;;;;;;;;;14.70;97.70;;;;;;5088249;28;20615;-71
2023/09/30 05:55:38;;;;;;;;;;;14.70;97.70;;;;;;5088806;28;19973;-71
2023/09/30 05:58:03;;;;;;;;;;;14.60;97.70;;;;;;5082856;28;19912;-71
2023/09/30 06:00:30;;;;;;;;;;;14.60;97.70;;;;;;5075807;28;20265;-71
2023/09/30 06:02:56;;;;;;;;;;;14.60;97.70;;;;;;5078617;28;20467;-71
2023/09/30 06:05:22;;;;;;;;;;;14.60;97.70;;;;;;5085193;28;20456;-71
2023/09/30 06:07:48;;;;;;;;;;;14.60;97.70;;;;;;5092038;28;20015;-71
2023/09/30 06:10:18;;;;;;;;;;;14.60;97.70;;;;;;5086894;28;19912;-71
2023/09/30 06:12:44;;;;;;;;;;;14.60;97.70;;;;;;5122147;27;19912;-71
2023/09/30 06:15:10;;;;;;;;;;;14.60;97.70;;;;;;5092306;28;19934;-71
2023/09/30 06:17:35;;;;;;;;;;;14.60;97.70;;;;;;5095944;28;19912;-71
2023/09/30 06:20:08;;;;;;;;;;;14.60;97.70;;;;;;5090611;28;19923;-71
2023/09/30 06:22:33;;;;;;;;;;;14.60;97.70;;;;;;5091908;28;19919;-71
2023/09/30 06:24:59;;;;;;;;;;;14.60;97.70;;;;;;5091552;28;20269;-71
2023/09/30 06:27:24;;;;;;;;;;;14.60;97.70;;;;;;5091751;28;19916;-71
2023/09/30 06:29:50;;;;;;;;;;;14.60;97.70;;;;;;5090269;28;19915;-71
2023/09/30 06:32:15;;;;;;;;;;;14.60;97.70;;;;;;5091678;28;20002;-71
2023/09/30 06:34:41;;;;;;;;;;;14.60;97.70;;;;;;5089713;28;19920;-71
2023/09/30 06:37:08;;;;;;;;;;;14.60;97.70;;;;;;5091834;28;19908;-71
2023/09/30 06:39:33;;;;;;;;;;;14.60;97.70;;;;;;5085622;28;20048;-71
2023/09/30 06:41:59;;;;;;;;;;;14.60;97.70;;;;;;5090312;28;19994;-71
2023/09/30 06:44:25;;;;;;;;;;;14.60;97.70;;;;;;5090512;28;20375;-71
2023/09/30 06:46:50;;;;;;;;;;;14.60;97.70;;;;;;5090979;28;20720;-71
2023/09/30 06:49:16;;;;;;;;;;;14.60;97.70;;;;;;5095640;28;20242;-71
2023/09/30 06:51:42;;;;;;;;;;;14.60;97.70;;;;;;5091126;28;20549;-71
2023/09/30 06:54:07;;;;;;;;;;;14.60;97.70;;;;;;5090848;28;19919;-71
2023/09/30 06:56:33;;;;;;;;;;;14.60;97.70;;;;;;5091156;28;19912;-70
2023/09/30 06:58:59;;;;;;;;;;;14.60;97.70;;;;;;5090621;28;20343;-70
2023/09/30 07:01:25;;;;;;;;;;;14.60;97.70;;;;;;5090490;28;20226;-70
2023/09/30 07:03:51;;;;;;;;;;;14.60;97.70;;;;;;5090170;28;19973;-70
2023/09/30 07:06:26;;;;;;;;;;;14.70;97.70;;;;;;5090008;28;20014;-70
2023/09/30 07:08:52;;;;;;;;;;;14.60;97.70;;;;;;5099103;28;19916;-70
2023/09/30 07:11:26;;;;;;;;;;;14.70;97.70;;;;;;5091251;28;19965;-70
2023/09/30 07:13:51;;;;;;;;;;;14.70;97.80;;;;;;5090385;28;20381;-70
2023/09/30 07:16:17;;;;;;;;;;;14.70;97.70;;;;;;5091131;28;19937;-70
2023/09/30 07:18:42;;;;;;;;;;;14.70;97.70;;;;;;5095212;28;19912;-70
2023/09/30 07:21:08;;;;;;;;;;;14.70;97.70;;;;;;5089460;28;20010;-70
2023/09/30 07:23:33;;;;;;;;;;;14.70;97.70;;;;;;5096885;28;20435;-70
2023/09/30 07:25:59;;;;;;;;;;;14.70;97.70;;;;;;5073244;28;19926;-70
2023/09/30 07:28:24;;;;;;;;;;;14.80;97.70;;;;;;5090887;28;19977;-70
2023/09/30 07:30:50;;;;;;;;;;;14.70;97.60;;;;;;5089318;28;19909;-70
2023/09/30 07:33:15;;;;;;;;;;;14.70;97.60;;;;;;5075886;28;20003;-70
2023/09/30 07:35:41;;;;;;;;;;;14.70;97.60;;;;;;5087899;28;19912;-70
2023/09/30 07:38:06;;;;;;;;;;;14.80;97.70;;;;;;5088374;28;20243;-70
2023/09/30 07:40:32;;;;;;;;;;;14.80;97.60;;;;;;5085483;28;19916;-70
2023/09/30 07:42:58;;;;;;;;;;;14.80;97.60;;;;;;5089119;28;19912;-70
2023/09/30 07:45:23;;;;;;;;;;;14.80;97.60;;;;;;5089099;28;19908;-70
2023/09/30 07:47:50;;;;;;;;;;;14.80;97.60;;;;;;5087735;28;20315;-70
2023/09/30 07:50:16;;;;;;;;;;;14.80;97.60;;;;;;5089111;28;19918;-70
2023/09/30 07:52:42;;;;;;;;;;;14.80;97.50;;;;;;5085417;28;19915;-70
2023/09/30 07:55:08;;;;;;;;;;;14.80;97.60;;;;;;5080843;28;19912;-70
2023/09/30 07:57:33;;;;;;;;;;;14.80;97.50;;;;;;5086689;28;19943;-70
2023/09/30 07:59:59;;;;;;;;;;;14.90;97.40;;;;;;5088801;28;19908;-70
2023/09/30 08:02:27;;;;;;;;;;;14.80;97.40;;;;;;5086897;28;19908;-70
2023/09/30 08:04:53;;;;;;;;;;;14.90;97.50;;;;;;5086439;28;20715;-70
2023/09/30 08:07:19;;;;;;;;;;;14.90;97.50;;;;;;5089001;28;19916;-70
2023/09/30 08:09:44;;;;;;;;;;;14.90;97.50;;;;;;5088659;28;20399;-70
2023/09/30 08:12:09;;;;;;;;;;;14.90;97.40;;;;;;5088876;28;19988;-70
2023/09/30 08:14:35;;;;;;;;;;;15.00;97.50;;;;;;5086898;28;19908;-70
2023/09/30 08:17:02;;;;;;;;;;;15.00;97.50;;;;;;5081380;28;20293;-70
2023/09/30 08:19:28;;;;;;;;;;;15.00;97.30;;;;;;5090892;28;20357;-70
2023/09/30 08:21:53;;;;;;;;;;;15.00;97.40;;;;;;5088778;28;19957;-70
2023/09/30 08:24:19;;;;;;;;;;;15.00;97.30;;;;;;5083517;28;19916;-70
2023/09/30 08:26:44;;;;;;;;;;;15.10;97.40;;;;;;5085756;28;20495;-70
2023/09/30 08:29:09;;;;;;;;;;;15.10;97.40;;;;;;5082711;28;19912;-70
2023/09/30 08:31:35;;;;;;;;;;;15.10;97.30;;;;;;5084654;28;20004;-70
2023/09/30 08:34:03;;;;;;;;;;;15.20;97.30;;;;;;5085973;28;20548;-70
2023/09/30 08:36:29;;;;;;;;;;;15.20;97.30;;;;;;5076834;28;19916;-70
2023/09/30 08:38:55;;;;;;;;;;;15.20;97.40;;;;;;5069920;28;19908;-70
2023/09/30 08:41:33;;;;;;;;;;;15.20;97.30;;;;;;5082252;28;19923;-70
2023/09/30 08:44:00;;;;;;;;;;;15.20;97.20;;;;;;5086649;28;19912;-70
2023/09/30 08:46:26;;;;;;;;;;;15.30;97.30;;;;;;5088520;28;19912;-70
2023/09/30 08:48:53;;;;;;;;;;;15.30;97.20;;;;;;5090367;28;20006;-70
2023/09/30 08:51:19;;;;;;;;;;;15.30;97.20;;;;;;5080241;28;20326;-70
2023/09/30 08:53:44;;;;;;;;;;;15.40;97.10;;;;;;5087713;28;19915;-70
2023/09/30 08:56:12;;;;;;;;;;;15.40;97.10;;;;;;5088441;28;19953;-70
2023/09/30 08:58:37;;;;;;;;;;;15.40;97.20;;;;;;5086834;28;20695;-70
2023/09/30 09:01:03;;;;;;;;;;;15.50;97.10;;;;;;5084964;28;20034;-70
2023/09/30 09:03:29;;;;;;;;;;;15.50;97.10;;;;;;5088343;28;19920;-70
2023/09/30 09:05:56;;;;;;;;;;;15.60;96.90;;;;;;5083747;28;19908;-70
2023/09/30 09:08:23;;;;;;;;;;;15.60;96.80;;;;;;5088081;28;19919;-70
2023/09/30 09:10:54;;;;;;;;;;;15.60;96.70;;;;;;5085635;28;20273;-70
2023/09/30 09:13:19;;;;;;;;;;;15.70;96.70;;;;;;5087040;28;19973;-70
2023/09/30 09:15:45;;;;;;;;;;;15.80;96.70;;;;;;5090354;28;20385;-70
2023/09/30 09:18:13;;;;;;;;;;;15.90;96.50;;;;;;5090745;28;20545;-70
2023/09/30 09:20:38;;;;;;;;;;;15.90;96.30;;;;;;5082766;28;20369;-70
2023/09/30 09:23:06;;;;;;;;;;;16.00;96.30;;;;;;5084472;28;19974;-70
2023/09/30 09:25:37;;;;;;;;;;;16.00;96.30;;;;;;5087396;28;19916;-70
2023/09/30 09:28:03;;;;;;;;;;;16.10;96.30;;;;;;5087047;28;19916;-70
2023/09/30 09:30:29;;;;;;;;;;;16.10;96.20;;;;;;5088052;28;19918;-70
2023/09/30 09:33:05;;;;;;;;;;;16.20;96.10;;;;;;5087612;28;19995;-70
2023/09/30 09:35:32;;;;;;;;;;;16.30;96.00;;;;;;5087657;28;19986;-70
2023/09/30 09:38:02;;;;;;;;;;;16.20;95.90;;;;;;5085274;28;19916;-70
2023/09/30 09:40:28;;;;;;;;;;;16.20;96.20;;;;;;5073889;28;20356;-70
2023/09/30 09:42:55;;;;;;;;;;;16.20;96.10;;;;;;5087225;28;19991;-70
2023/09/30 09:45:22;;;;;;;;;;;16.20;96.10;;;;;;5089654;28;19955;-70
2023/09/30 09:47:48;;;;;;;;;;;16.20;96.40;;;;;;5082135;28;19923;-70
2023/09/30 09:50:15;;;;;;;;;;;16.20;96.20;;;;;;5088471;28;20364;-70
2023/09/30 09:52:42;;;;;;;;;;;16.20;96.20;;;;;;5075518;28;20003;-70
2023/09/30 09:55:10;;;;;;;;;;;16.20;96.30;;;;;;5091193;28;19923;-70
2023/09/30 09:57:36;;;;;;;;;;;16.20;96.20;;;;;;5090755;28;19912;-70
2023/09/30 10:00:05;;;;;;;;;;;16.30;96.30;;;;;;5089743;28;19912;-70
2023/09/30 10:02:30;;;;;;;;;;;16.40;96.20;;;;;;5087186;28;20011;-70
2023/09/30 10:04:56;;;;;;;;;;;16.40;96.10;;;;;;5090532;28;20003;-70
2023/09/30 10:07:24;;;;;;;;;;;16.40;96.00;;;;;;5091030;28;19912;-70
2023/09/30 10:09:51;;;;;;;;;;;16.50;96.00;;;;;;5089464;28;19908;-70
2023/09/30 10:12:18;;;;;;;;;;;16.50;95.90;;;;;;5090288;28;19908;-70
2023/09/30 10:14:44;;;;;;;;;;;16.60;95.80;;;;;;5118859;27;20352;-70
2023/09/30 10:17:09;;;;;;;;;;;16.60;95.80;;;;;;5091756;28;19943;-70
2023/09/30 10:19:35;;;;;;;;;;;16.70;95.70;;;;;;5092346;28;19922;-70
2023/09/30 10:22:19;;;;;;;;;;;16.70;95.60;;;;;;5087126;28;19912;-70
2023/09/30 10:24:49;;;;;;;;;;;16.70;95.60;;;;;;5090814;28;19918;-70
2023/09/30 10:27:23;;;;;;;;;;;16.80;95.60;;;;;;5089073;28;20374;-70
2023/09/30 10:30:02;;;;;;;;;;;16.80;95.50;;;;;;5088360;28;19912;-70
2023/09/30 10:32:46;;;;;;;;;;;16.90;95.50;;;;;;5100796;28;20358;-70
2023/09/30 10:35:11;;;;;;;;;;;16.90;95.30;;;;;;5086168;28;20003;-70
2023/09/30 10:37:38;;;;;;;;;;;16.90;95.30;;;;;;5086414;28;19999;-70
2023/09/30 10:40:04;;;;;;;;;;;17.00;95.40;;;;;;5074480;28;19920;-70
2023/09/30 10:42:56;;;;;;;;;;;17.00;95.30;;;;;;5076285;28;19908;-70
2023/09/30 10:45:44;;;;;;;;;;;17.00;95.30;;;;;;5083570;28;19923;-70
2023/09/30 10:48:25;;;;;;;;;;;17.10;95.30;;;;;;5087930;28;20426;-70
2023/09/30 10:51:01;;;;;;;;;;;17.10;95.20;;;;;;5122455;27;20265;-70
2023/09/30 10:53:30;;;;;;;;;;;17.20;95.20;;;;;;5109558;27;19912;-70
2023/09/30 10:55:59;;;;;;;;;;;17.20;95.10;;;;;;5080224;28;19943;-70
2023/09/30 10:58:44;;;;;;;;;;;17.30;94.90;;;;;;5082233;28;19916;-70
2023/09/30 11:01:10;;;;;;;;;;;17.30;95.00;;;;;;5070333;28;20230;-70
2023/09/30 11:03:36;;;;;;;;;;;17.30;95.00;;;;;;5078474;28;19916;-70
2023/09/30 11:06:02;;;;;;;;;;;17.40;95.00;;;;;;5088882;28;19975;-70
2023/09/30 11:08:29;;;;;;;;;;;17.40;95.00;;;;;;5094746;28;19974;-70
2023/09/30 11:10:56;;;;;;;;;;;17.40;94.90;;;;;;5090084;28;20280;-70
2023/09/30 11:13:22;;;;;;;;;;;17.50;94.90;;;;;;5083353;28;19912;-70
2023/09/30 11:15:47;;;;;;;;;;;17.50;94.90;;;;;;5089368;28;19919;-70
2023/09/30 11:18:14;;;;;;;;;;;17.60;94.80;;;;;;5095704;28;20003;-70
2023/09/30 11:20:39;;;;;;;;;;;17.70;94.80;;;;;;5089969;28;20695;-70
2023/09/30 11:23:06;;;;;;;;;;;17.70;94.80;;;;;;5080998;28;19912;-70
2023/09/30 11:25:34;;;;;;;;;;;17.80;94.70;;;;;;5088105;28;19922;-70
2023/09/30 11:28:18;;;;;;;;;;;17.80;94.70;;;;;;5089552;28;19908;-70
2023/09/30 11:31:00;;;;;;;;;;;17.90;94.70;;;;;;5081198;28;20464;-70
2023/09/30 11:33:26;;;;;;;;;;;17.90;94.60;;;;;;5083767;28;20015;-70
2023/09/30 11:36:02;;;;;;;;;;;18.00;94.60;;;;;;5078599;28;19999;-70
2023/09/30 11:38:28;;;;;;;;;;;18.10;94.60;;;;;;5089131;28;20370;-70
2023/09/30 11:41:06;;;;;;;;;;;18.10;94.20;;;;;;5084493;28;19912;-70
2023/09/30 11:43:35;;;;;;;;;;;18.10;94.30;;;;;;5087787;28;19916;-70
2023/09/30 11:46:13;;;;;;;;;;;18.10;94.50;;;;;;5083227;28;19908;-70
2023/09/30 11:48:55;;;;;;;;;;;18.20;94.70;;;;;;5091257;28;19909;-70
2023/09/30 11:51:24;;;;;;;;;;;18.20;94.10;;;;;;5082344;28;19990;-70
2023/09/30 11:53:50;;;;;;;;;;;18.30;94.40;;;;;;5071570;28;20357;-70
2023/09/30 11:56:16;;;;;;;;;;;18.30;94.10;;;;;;5077022;28;19917;-70
2023/09/30 11:58:41;;;;;;;;;;;18.40;94.50;;;;;;5076864;28;20436;-70
2023/09/30 12:01:07;;;;;;;;;;;18.40;94.30;;;;;;5084982;28;19939;-70
2023/09/30 12:03:39;;;;;;;;;;;18.40;94.20;;;;;;5076877;28;19916;-70
2023/09/30 12:06:04;;;;;;;;;;;18.40;94.20;;;;;;5088138;28;19916;-70
2023/09/30 12:08:30;;;;;;;;;;;18.50;94.20;;;;;;5088076;28;19908;-70
2023/09/30 12:10:56;;;;;;;;;;;18.50;94.30;;;;;;5087868;28;19912;-70
2023/09/30 12:13:21;;;;;;;;;;;18.50;94.20;;;;;;5088048;28;19916;-70
2023/09/30 12:15:47;;;;;;;;;;;18.60;94.20;;;;;;5091914;28;19922;-70
2023/09/30 12:18:14;;;;;;;;;;;18.60;94.20;;;;;;5093387;28;20659;-70
2023/09/30 12:20:41;;;;;;;;;;;18.70;93.90;;;;;;5088039;28;19930;-70
2023/09/30 12:23:06;;;;;;;;;;;18.70;94.00;;;;;;5088933;28;19912;-70
2023/09/30 12:25:33;;;;;;;;;;;18.80;93.90;;;;;;5089056;28;19923;-70
2023/09/30 12:27:59;;;;;;;;;;;18.80;93.90;;;;;;5087649;28;20296;-70
2023/09/30 12:30:24;;;;;;;;;;;18.80;93.80;;;;;;5089108;28;19912;-70
2023/09/30 12:32:50;;;;;;;;;;;18.80;93.50;;;;;;5088661;28;19979;-70
2023/09/30 12:35:15;;;;;;;;;;;18.90;93.80;;;;;;5089396;28;19999;-70
2023/09/30 12:37:43;;;;;;;;;;;18.80;93.90;;;;;;5087694;28;20007;-70
2023/09/30 12:40:11;;;;;;;;;;;18.90;94.00;;;;;;5084758;28;19915;-70
2023/09/30 12:42:37;;;;;;;;;;;18.90;94.00;;;;;;5089053;28;20303;-70
2023/09/30 12:45:02;;;;;;;;;;;19.00;94.00;;;;;;5088666;28;19916;-70
2023/09/30 12:47:28;;;;;;;;;;;19.00;93.80;;;;;;5089894;28;19954;-70
2023/09/30 12:49:57;;;;;;;;;;;19.00;93.80;;;;;;5087589;28;19935;-70
2023/09/30 12:52:24;;;;;;;;;;;19.00;93.80;;;;;;5089440;28;19908;-70
2023/09/30 12:54:49;;;;;;;;;;;19.00;93.80;;;;;;5084028;28;19946;-70
2023/09/30 12:57:17;;;;;;;;;;;19.00;93.60;;;;;;5080243;28;19916;-70
2023/09/30 12:59:45;;;;;;;;;;;19.10;93.90;;;;;;5088792;28;19915;-70
2023/09/30 13:02:11;;;;;;;;;;;19.10;93.40;;;;;;5080537;28;20027;-70
2023/09/30 13:04:42;;;;;;;;;;;19.10;93.70;;;;;;5112649;28;20039;-70
2023/09/30 13:07:08;;;;;;;;;;;19.20;93.60;;;;;;5080023;28;20467;-70
2023/09/30 13:09:34;;;;;;;;;;;19.20;93.50;;;;;;5088653;28;19908;-70
2023/09/30 13:12:00;;;;;;;;;;;19.10;93.60;;;;;;5091524;28;19951;-70
2023/09/30 13:14:27;;;;;;;;;;;19.10;93.60;;;;;;5078578;28;20003;-70
2023/09/30 13:16:53;;;;;;;;;;;19.10;93.70;;;;;;5079952;28;20543;-70
2023/09/30 13:19:21;;;;;;;;;;;19.20;93.70;;;;;;5095588;28;19919;-70
2023/09/30 13:21:47;;;;;;;;;;;19.20;94.00;;;;;;5092040;28;20353;-70
2023/09/30 13:24:13;;;;;;;;;;;19.30;93.50;;;;;;5091503;28;19947;-70
2023/09/30 13:26:39;;;;;;;;;;;19.30;93.80;;;;;;5086368;28;20478;-70
2023/09/30 13:29:05;;;;;;;;;;;19.30;93.90;;;;;;5091821;28;19926;-70
2023/09/30 13:31:31;;;;;;;;;;;19.30;93.50;;;;;;5083691;28;20136;-70
2023/09/30 13:33:56;;;;;;;;;;;19.30;93.70;;;;;;5091731;28;19961;-70
2023/09/30 13:36:22;;;;;;;;;;;19.30;93.60;;;;;;5083507;28;19912;-70
2023/09/30 13:38:48;;;;;;;;;;;19.30;93.60;;;;;;5091196;28;19947;-70
2023/09/30 13:41:15;;;;;;;;;;;19.40;93.70;;;;;;5090631;28;19916;-70
2023/09/30 13:43:41;;;;;;;;;;;19.40;93.30;;;;;;5090274;28;19935;-70
2023/09/30 13:46:06;;;;;;;;;;;19.40;93.10;;;;;;5090352;28;19915;-70
2023/09/30 13:48:33;;;;;;;;;;;19.40;93.20;;;;;;5090524;28;19912;-70
2023/09/30 13:51:08;;;;;;;;;;;19.50;93.20;;;;;;5091349;28;20304;-70
2023/09/30 13:53:33;;;;;;;;;;;19.40;93.10;;;;;;5091660;28;19953;-70
2023/09/30 13:55:59;;;;;;;;;;;19.40;93.10;;;;;;5091008;28;20323;-70
2023/09/30 13:58:25;;;;;;;;;;;19.40;93.20;;;;;;5086089;28;20373;-70
2023/09/30 14:00:53;;;;;;;;;;;19.50;93.20;;;;;;5086535;28;20533;-70
2023/09/30 14:03:19;;;;;;;;;;;19.50;93.30;;;;;;5088484;28;19989;-70
2023/09/30 14:05:48;;;;;;;;;;;19.50;93.20;;;;;;5090795;28;19965;-70
2023/09/30 14:08:13;;;;;;;;;;;19.50;93.10;;;;;;5090449;28;19919;-70
2023/09/30 14:10:39;;;;;;;;;;;19.60;93.10;;;;;;5090649;28;19934;-70
2023/09/30 14:13:04;;;;;;;;;;;19.60;93.00;;;;;;5090508;28;19931;-70
2023/09/30 14:15:31;;;;;;;;;;;19.60;92.90;;;;;;5090073;28;19948;-70